Time;durP1;ratioP1;P1;durP2;ratioP2;P2;SDS_P1;SDS_P2;PMS_P1;PMS_P2;Temp;Humidity;BMP_temperature;BMP_pressure;BME280_temperature;BME280_humidity;BME280_pressure;Samples;Min_cycle;Max_cycle;Signal;HPM_P1;HPM_P2
2022/03/18 00:00:39;;;;;;;151.20;62.05;;;6.10;99.90;;;;;;4964157;29;20059;-85
2022/03/18 00:03:26;;;;;;;149.15;62.00;;;6.10;99.90;;;;;;4964380;29;20043;-87
2022/03/18 00:06:16;;;;;;;155.65;63.35;;;6.10;99.90;;;;;;4964735;29;20047;-88
2022/03/18 00:09:05;;;;;;;166.10;65.60;;;6.10;99.90;;;;;;4969474;28;20102;-86
2022/03/18 00:11:52;;;;;;;151.07;63.72;;;6.10;99.90;;;;;;4967151;28;20110;-85
2022/03/18 00:14:42;;;;;;;169.02;67.03;;;6.10;99.90;;;;;;4951371;29;20110;-86
2022/03/18 00:17:32;;;;;;;158.77;64.82;;;6.10;99.90;;;;;;4963476;29;20110;-86
2022/03/18 00:20:23;;;;;;;168.15;66.85;;;6.10;99.90;;;;;;4951042;29;20210;-85
2022/03/18 00:23:13;;;;;;;171.63;68.85;;;6.00;99.90;;;;;;4964073;29;20122;-87
2022/03/18 00:26:00;;;;;;;164.70;67.35;;;6.10;99.90;;;;;;4962118;28;20217;-86
2022/03/18 00:28:50;;;;;;;164.32;66.13;;;6.00;99.90;;;;;;4948430;28;20062;-87
2022/03/18 00:31:37;;;;;;;173.27;70.65;;;6.00;99.90;;;;;;4957957;29;20123;-86
2022/03/18 00:34:25;;;;;;;160.52;67.15;;;6.10;99.90;;;;;;4943605;29;20155;-88
2022/03/18 00:37:12;;;;;;;159.80;68.30;;;6.00;99.90;;;;;;4948158;29;20039;-85
2022/03/18 00:40:01;;;;;;;167.90;70.70;;;6.00;99.90;;;;;;4955726;29;20079;-87
2022/03/18 00:42:48;;;;;;;162.52;67.68;;;6.00;99.90;;;;;;4958848;28;20124;-86
2022/03/18 00:45:35;;;;;;;174.60;69.47;;;6.00;99.90;;;;;;4957207;29;20082;-85
2022/03/18 00:54:43;;;;;;;171.32;69.47;;;5.90;99.90;;;;;;4950436;29;20051;-87
2022/03/18 00:57:30;;;;;;;173.13;70.15;;;6.00;99.90;;;;;;4954761;29;20353;-84
2022/03/18 01:00:17;;;;;;;176.57;70.57;;;5.90;99.90;;;;;;4954375;29;20048;-86
2022/03/18 01:03:06;;;;;;;165.43;69.28;;;5.90;99.90;;;;;;4946960;29;20051;-86
2022/03/18 01:05:54;;;;;;;166.45;67.00;;;5.90;99.90;;;;;;4959518;28;20067;-88
2022/03/18 01:08:41;;;;;;;177.18;67.47;;;5.90;99.90;;;;;;4954290;29;20107;-85
2022/03/18 01:11:32;;;;;;;172.50;67.53;;;5.90;99.90;;;;;;4954906;29;20059;-86
2022/03/18 01:14:20;;;;;;;148.07;63.30;;;5.90;99.90;;;;;;4956059;29;20082;-83
2022/03/18 01:17:07;;;;;;;175.90;66.35;;;5.90;99.90;;;;;;4962981;29;20373;-85
2022/03/18 01:19:55;;;;;;;164.75;64.68;;;5.90;99.90;;;;;;4956351;29;20110;-87
2022/03/18 01:22:44;;;;;;;154.05;64.28;;;5.90;99.90;;;;;;4957649;29;20091;-87
2022/03/18 01:25:31;;;;;;;154.82;63.05;;;5.90;99.90;;;;;;4949921;29;20386;-85
2022/03/18 01:28:19;;;;;;;154.15;61.30;;;5.90;99.90;;;;;;4954192;29;20118;-87
2022/03/18 01:31:06;;;;;;;156.63;62.90;;;5.90;99.90;;;;;;4962461;28;20404;-86
2022/03/18 01:33:56;;;;;;;158.40;63.78;;;5.90;99.90;;;;;;4958273;28;20054;-85
2022/03/18 01:36:43;;;;;;;156.75;61.40;;;5.80;99.90;;;;;;4941523;29;20051;-85
2022/03/18 01:39:30;;;;;;;147.65;60.30;;;5.80;99.90;;;;;;4947332;29;20178;-86
2022/03/18 01:42:18;;;;;;;148.48;61.67;;;5.80;99.90;;;;;;4950478;28;20071;-86
2022/03/18 01:45:06;;;;;;;157.60;64.32;;;5.80;99.90;;;;;;4948884;29;20054;-84
2022/03/18 01:47:53;;;;;;;145.95;59.25;;;5.80;99.90;;;;;;4956744;28;20150;-85
2022/03/18 01:50:41;;;;;;;157.65;62.55;;;5.80;99.90;;;;;;4950094;29;20500;-84
2022/03/18 01:53:28;;;;;;;145.43;60.67;;;5.80;99.90;;;;;;4941381;29;20070;-86
2022/03/18 01:56:15;;;;;;;144.00;58.65;;;5.80;99.90;;;;;;4952547;29;20066;-86
2022/03/18 01:59:02;;;;;;;147.75;61.17;;;5.80;99.90;;;;;;4953200;28;20071;-85
2022/03/18 02:01:50;;;;;;;143.95;59.92;;;5.80;99.90;;;;;;4952082;28;20058;-84
2022/03/18 02:04:39;;;;;;;135.32;57.45;;;5.80;99.90;;;;;;4954621;29;20076;-88
2022/03/18 02:07:26;;;;;;;143.15;57.13;;;5.70;99.90;;;;;;4941212;29;20130;-84
2022/03/18 02:10:14;;;;;;;130.35;56.60;;;5.70;99.90;;;;;;4946436;29;20464;-85
2022/03/18 02:13:02;;;;;;;136.40;56.45;;;5.70;99.90;;;;;;4944551;29;20067;-85
2022/03/18 02:15:49;;;;;;;140.93;58.17;;;5.70;99.90;;;;;;4956023;28;20062;-84
2022/03/18 02:18:36;;;;;;;144.77;58.00;;;5.70;99.90;;;;;;4954654;28;20055;-84
2022/03/18 02:21:29;;;;;;;132.02;55.38;;;5.70;99.90;;;;;;4941398;29;20043;-84
2022/03/18 02:24:16;;;;;;;128.18;54.92;;;5.70;99.90;;;;;;4948700;28;20193;-82
2022/03/18 02:27:06;;;;;;;130.25;55.40;;;5.70;99.90;;;;;;4954985;29;20051;-85
2022/03/18 02:29:54;;;;;;;134.38;55.05;;;5.70;99.90;;;;;;4953882;29;20071;-84
2022/03/18 02:32:43;;;;;;;131.32;53.85;;;5.70;99.90;;;;;;4953738;29;20051;-82
2022/03/18 02:35:33;;;;;;;135.50;54.67;;;5.70;99.90;;;;;;4956182;28;20130;-83
2022/03/18 02:38:20;;;;;;;116.47;52.65;;;5.60;99.90;;;;;;4953104;28;20484;-85
2022/03/18 02:41:08;;;;;;;118.88;53.95;;;5.60;99.90;;;;;;4939967;29;20168;-84
2022/03/18 02:43:58;;;;;;;122.47;54.80;;;5.60;99.90;;;;;;4954487;28;20079;-84
2022/03/18 02:46:45;;;;;;;123.78;53.40;;;5.60;99.90;;;;;;4942826;29;20047;-83
2022/03/18 02:49:32;;;;;;;130.82;54.28;;;5.70;99.90;;;;;;4951799;29;20079;-85
2022/03/18 02:52:20;;;;;;;129.18;54.58;;;5.60;99.90;;;;;;4953673;29;20365;-85
2022/03/18 02:55:09;;;;;;;125.68;54.25;;;5.60;99.90;;;;;;4955199;29;20047;-86
2022/03/18 02:57:56;;;;;;;127.20;54.17;;;5.60;99.90;;;;;;4950320;29;20063;-86
2022/03/18 03:00:44;;;;;;;124.53;52.50;;;5.60;99.90;;;;;;4948978;29;20044;-85
2022/03/18 03:03:31;;;;;;;117.93;54.30;;;5.60;99.90;;;;;;4948387;28;20058;-84
2022/03/18 03:09:25;;;;;;;115.50;53.35;;;5.60;99.90;;;;;;4955698;28;20119;-83
2022/03/18 03:12:12;;;;;;;117.60;49.90;;;5.60;99.90;;;;;;4940897;29;20106;-85
2022/03/18 03:14:59;;;;;;;119.90;51.20;;;5.60;99.90;;;;;;4947432;28;20126;-85
2022/03/18 03:17:47;;;;;;;117.82;52.08;;;5.60;99.90;;;;;;4946419;29;20086;-87
2022/03/18 03:20:34;;;;;;;120.55;50.80;;;5.50;99.90;;;;;;4944531;29;20549;-85
2022/03/18 03:23:25;;;;;;;111.68;50.50;;;5.60;99.90;;;;;;4957849;28;20329;-84
2022/03/18 03:26:17;;;;;;;105.88;50.17;;;5.50;99.90;;;;;;4957659;29;20055;-84
2022/03/18 03:29:07;;;;;;;108.43;50.72;;;5.50;99.90;;;;;;4960434;28;20066;-85
2022/03/18 03:31:57;;;;;;;111.68;50.95;;;5.50;99.90;;;;;;4950298;29;20051;-84
2022/03/18 03:34:47;;;;;;;118.00;51.08;;;5.50;99.90;;;;;;4948030;29;20123;-84
2022/03/18 03:37:34;;;;;;;105.00;49.58;;;5.50;99.90;;;;;;4962925;28;20047;-86
2022/03/18 03:40:21;;;;;;;117.22;51.53;;;5.50;99.90;;;;;;4957036;28;20058;-84
2022/03/18 03:43:09;;;;;;;107.25;49.80;;;5.50;99.90;;;;;;4953430;29;20055;-85
2022/03/18 03:45:57;;;;;;;107.78;48.92;;;5.50;99.90;;;;;;4961203;28;20043;-83
2022/03/18 03:48:44;;;;;;;107.80;49.33;;;5.50;99.90;;;;;;4935334;29;20040;-86
2022/03/18 03:51:31;;;;;;;99.97;46.97;;;5.50;99.90;;;;;;4966673;29;20055;-86
2022/03/18 03:54:18;;;;;;;102.85;47.90;;;5.50;99.90;;;;;;4966288;29;20075;-85
2022/03/18 03:57:06;;;;;;;104.60;48.38;;;5.50;99.90;;;;;;4968983;29;20075;-84
2022/03/18 03:59:53;;;;;;;99.78;45.40;;;5.40;99.90;;;;;;4965017;29;20052;-85
2022/03/18 04:02:43;;;;;;;96.00;45.00;;;5.40;99.90;;;;;;4949738;29;20043;-85
2022/03/18 04:05:32;;;;;;;94.43;44.30;;;5.40;99.90;;;;;;4963285;29;20106;-84
2022/03/18 04:08:20;;;;;;;94.22;43.80;;;5.40;99.90;;;;;;4973672;28;20062;-85
2022/03/18 04:11:07;;;;;;;93.90;44.40;;;5.40;99.90;;;;;;4958381;29;20151;-86
2022/03/18 04:13:55;;;;;;;99.57;44.60;;;5.40;99.90;;;;;;4957704;29;20051;-85
2022/03/18 04:16:44;;;;;;;95.90;43.90;;;5.40;99.90;;;;;;4942481;29;20055;-86
2022/03/18 04:19:32;;;;;;;94.10;44.08;;;5.30;99.90;;;;;;4934689;29;20056;-85
2022/03/18 04:22:20;;;;;;;96.35;42.60;;;5.30;99.90;;;;;;4953823;29;20050;-85
2022/03/18 04:25:09;;;;;;;96.05;44.53;;;5.40;99.90;;;;;;4953573;29;20047;-85
2022/03/18 04:27:59;;;;;;;100.28;44.15;;;5.40;99.90;;;;;;4953403;28;20102;-85
2022/03/18 04:30:50;;;;;;;89.10;42.67;;;5.30;99.90;;;;;;4940671;28;20056;-86
2022/03/18 04:33:37;;;;;;;90.80;42.33;;;5.30;99.90;;;;;;4949451;29;20066;-84
2022/03/18 04:36:24;;;;;;;90.25;42.08;;;5.30;99.90;;;;;;4949922;29;20051;-85
2022/03/18 04:39:14;;;;;;;93.00;42.85;;;5.30;99.90;;;;;;4965193;28;20067;-86
2022/03/18 04:42:01;;;;;;;88.68;43.63;;;5.30;99.90;;;;;;4962409;29;20077;-85
2022/03/18 04:44:48;;;;;;;90.20;42.55;;;5.30;99.90;;;;;;4951454;29;20104;-86
2022/03/18 04:47:35;;;;;;;90.65;43.00;;;5.30;99.90;;;;;;4969711;29;20160;-85
2022/03/18 04:50:23;;;;;;;89.45;42.08;;;5.30;99.90;;;;;;4954939;29;20051;-85
2022/03/18 04:53:10;;;;;;;87.68;41.83;;;5.30;99.90;;;;;;4956356;28;20166;-86
2022/03/18 04:55:57;;;;;;;89.43;43.42;;;5.30;99.90;;;;;;4964818;29;20055;-85
2022/03/18 04:58:46;;;;;;;90.47;42.85;;;5.30;99.90;;;;;;4967590;29;20043;-85
2022/03/18 05:01:33;;;;;;;92.93;42.95;;;5.30;99.90;;;;;;4967230;28;20047;-85
2022/03/18 05:04:21;;;;;;;91.05;43.88;;;5.30;99.90;;;;;;4959548;29;20119;-86
2022/03/18 05:07:08;;;;;;;86.30;43.15;;;5.30;99.90;;;;;;4967310;29;20071;-86
2022/03/18 05:09:58;;;;;;;96.03;44.03;;;5.30;99.90;;;;;;4966257;29;20050;-86
2022/03/18 05:12:46;;;;;;;87.57;43.17;;;5.30;99.90;;;;;;4971368;28;20039;-85
2022/03/18 05:15:39;;;;;;;89.65;43.47;;;5.30;99.90;;;;;;4974001;29;20090;-84
2022/03/18 05:18:29;;;;;;;93.70;45.65;;;5.30;99.90;;;;;;4977016;29;20059;-85
2022/03/18 05:21:16;;;;;;;89.65;43.65;;;5.30;99.90;;;;;;4975550;28;20065;-84
2022/03/18 05:24:06;;;;;;;96.00;43.42;;;5.30;99.90;;;;;;4975698;28;20043;-81
2022/03/18 05:26:57;;;;;;;94.00;45.13;;;5.30;99.90;;;;;;4977533;28;20075;-80
2022/03/18 05:29:44;;;;;;;92.32;44.15;;;5.20;99.90;;;;;;4978905;28;20047;-82
2022/03/18 05:32:31;;;;;;;94.50;43.08;;;5.20;99.90;;;;;;4977698;28;20098;-83
2022/03/18 05:37:56;;;;;;;91.22;44.30;;;5.30;99.90;;;;;;5703804;23;20054;-84
2022/03/18 05:40:46;;;;;;;94.20;43.88;;;5.20;99.90;;;;;;4976959;28;20106;-83
2022/03/18 05:43:36;;;;;;;96.20;45.47;;;5.30;99.90;;;;;;4962651;29;20091;-83
2022/03/18 05:46:24;;;;;;;101.50;47.63;;;5.30;99.90;;;;;;4977970;29;20075;-84
2022/03/18 05:49:11;;;;;;;96.03;44.22;;;5.20;99.90;;;;;;4976434;28;20035;-84
2022/03/18 05:51:59;;;;;;;100.30;46.03;;;5.30;99.90;;;;;;4992577;28;20346;-84
2022/03/18 05:54:46;;;;;;;100.82;46.92;;;5.30;99.90;;;;;;4983697;28;20043;-84
2022/03/18 05:57:35;;;;;;;101.18;46.28;;;5.30;99.90;;;;;;4991287;28;20142;-84
2022/03/18 06:00:23;;;;;;;107.53;48.20;;;5.30;99.90;;;;;;4994482;28;20063;-85
2022/03/18 06:11:48;;;;;;;97.68;47.28;;;5.30;99.90;;;;;;4904556;29;20060;-83
2022/03/18 06:17:56;;;;;;;95.15;45.53;;;5.40;99.90;;;;;;4897250;29;20324;-85
2022/03/18 06:20:49;;;;;;;96.82;48.70;;;5.50;99.90;;;;;;4935601;28;20496;-84
2022/03/18 06:23:39;;;;;;;98.03;46.75;;;5.50;99.90;;;;;;4986024;28;20067;-86
2022/03/18 06:26:26;;;;;;;94.53;46.05;;;5.50;99.90;;;;;;4981470;28;20074;-85
2022/03/18 06:29:13;;;;;;;93.80;46.78;;;5.50;99.90;;;;;;4990986;28;20038;-86
2022/03/18 06:32:00;;;;;;;90.50;46.30;;;5.60;99.90;;;;;;4963401;28;20051;-86
2022/03/18 06:34:47;;;;;;;81.47;44.05;;;5.50;99.90;;;;;;4961315;28;20082;-87
2022/03/18 06:37:35;;;;;;;87.63;44.80;;;5.60;99.90;;;;;;4974509;28;20050;-85
2022/03/18 06:40:23;;;;;;;86.32;46.22;;;5.60;99.90;;;;;;4963333;28;20214;-86
2022/03/18 06:43:13;;;;;;;90.95;44.70;;;5.60;99.90;;;;;;4959396;28;20075;-85
2022/03/18 06:46:00;;;;;;;95.75;47.35;;;5.70;99.90;;;;;;4963515;28;20054;-86
2022/03/18 06:48:49;;;;;;;88.10;46.28;;;5.70;99.90;;;;;;4958879;28;20125;-86
2022/03/18 06:51:37;;;;;;;89.15;45.05;;;5.70;99.90;;;;;;4973824;28;20325;-85
2022/03/18 06:54:26;;;;;;;88.30;43.42;;;5.70;99.90;;;;;;4974165;28;20054;-88
2022/03/18 06:57:13;;;;;;;83.53;43.15;;;5.80;99.90;;;;;;4959921;28;20111;-86
2022/03/18 07:00:03;;;;;;;85.95;43.55;;;5.80;99.90;;;;;;4961831;28;20183;-84
2022/03/18 07:02:53;;;;;;;84.88;44.08;;;5.90;99.90;;;;;;4969761;28;20054;-85
2022/03/18 07:05:40;;;;;;;81.90;43.30;;;5.90;99.90;;;;;;4957007;28;20039;-87
2022/03/18 07:08:27;;;;;;;83.38;42.90;;;6.00;99.90;;;;;;4968271;28;20095;-84
2022/03/18 07:11:19;;;;;;;81.10;43.55;;;6.00;99.90;;;;;;4972139;28;20432;-86
2022/03/18 07:14:11;;;;;;;76.22;42.28;;;6.00;99.90;;;;;;4971951;28;20047;-86
2022/03/18 07:20:05;;;;;;;76.68;41.42;;;6.10;99.90;;;;;;4970267;28;20429;-86
2022/03/18 07:23:06;;;;;;;73.45;41.33;;;6.10;99.90;;;;;;4979675;28;20047;-83
2022/03/18 07:25:55;;;;;;;73.88;43.80;;;6.20;99.90;;;;;;4962402;28;20154;-82
2022/03/18 07:28:43;;;;;;;84.68;43.83;;;6.30;99.90;;;;;;4968761;28;20073;-85
2022/03/18 07:31:31;;;;;;;81.15;41.42;;;6.30;99.90;;;;;;4968422;28;20121;-85
2022/03/18 07:34:25;;;;;;;77.28;42.00;;;6.30;99.90;;;;;;4973573;28;20042;-87
2022/03/18 07:37:18;;;;;;;75.18;40.88;;;6.40;99.90;;;;;;4965974;28;20062;-86
2022/03/18 07:40:18;;;;;;;74.88;40.30;;;6.40;99.90;;;;;;4968665;28;20070;-86
2022/03/18 07:43:06;;;;;;;79.07;43.05;;;6.50;99.90;;;;;;4970205;28;20463;-83
2022/03/18 07:45:53;;;;;;;73.28;40.97;;;6.50;99.90;;;;;;4963874;28;20174;-84
2022/03/18 07:48:44;;;;;;;74.18;42.83;;;6.70;99.90;;;;;;4960894;28;20062;-82
2022/03/18 07:51:31;;;;;;;68.80;39.63;;;6.90;99.90;;;;;;4963479;28;20364;-84
2022/03/18 07:54:19;;;;;;;72.43;39.88;;;7.10;99.90;;;;;;4971837;28;20065;-85
2022/03/18 07:57:08;;;;;;;73.25;40.80;;;7.30;99.90;;;;;;4957797;28;20047;-85
2022/03/18 07:59:56;;;;;;;68.53;39.88;;;7.40;99.90;;;;;;4974422;28;20468;-82
2022/03/18 08:02:48;;;;;;;68.97;39.22;;;7.60;99.90;;;;;;4953262;28;20062;-85
2022/03/18 08:05:53;;;;;;;69.00;39.90;;;7.60;99.90;;;;;;4977961;28;20046;-85
2022/03/18 08:08:41;;;;;;;67.57;38.83;;;7.70;99.90;;;;;;4971659;28;20050;-87
2022/03/18 08:11:37;;;;;;;66.28;38.63;;;7.70;99.90;;;;;;4971137;28;20057;-87
2022/03/18 08:14:25;;;;;;;64.85;38.60;;;7.80;99.90;;;;;;4963345;28;20069;-89
2022/03/18 08:17:13;;;;;;;72.93;41.15;;;7.70;99.90;;;;;;4971427;28;20051;-87
2022/03/18 08:20:04;;;;;;;69.22;41.03;;;7.60;99.90;;;;;;4976152;28;20066;-87
2022/03/18 08:22:51;;;;;;;73.05;41.40;;;7.50;99.90;;;;;;4953180;28;20058;-87
2022/03/18 08:25:38;;;;;;;70.85;41.67;;;7.40;99.90;;;;;;4976165;28;20077;-89
2022/03/18 08:28:26;;;;;;;69.68;40.58;;;7.40;99.90;;;;;;4976638;28;20039;-88
2022/03/18 08:31:14;;;;;;;76.55;42.83;;;7.40;99.90;;;;;;4973703;28;20123;-87
2022/03/18 08:34:04;;;;;;;78.25;43.65;;;7.50;99.90;;;;;;4980422;28;20043;-87
2022/03/18 08:36:56;;;;;;;75.38;42.60;;;7.40;99.90;;;;;;4979231;28;20254;-87
2022/03/18 08:39:46;;;;;;;77.55;44.25;;;7.40;99.90;;;;;;4977883;28;20145;-86
2022/03/18 08:42:37;;;;;;;74.18;44.70;;;7.20;99.90;;;;;;4974831;28;20449;-86
2022/03/18 08:45:27;;;;;;;73.07;43.05;;;7.30;99.90;;;;;;4982399;28;20764;-86
2022/03/18 08:48:15;;;;;;;74.82;43.63;;;7.50;99.90;;;;;;4962466;28;20042;-88
2022/03/18 08:51:15;;;;;;;75.13;42.70;;;7.60;99.90;;;;;;4976419;28;20366;-86
2022/03/18 08:54:03;;;;;;;73.03;43.33;;;7.70;99.90;;;;;;4975022;28;20043;-87
2022/03/18 08:56:53;;;;;;;75.50;44.72;;;7.50;99.90;;;;;;4972316;28;20058;-87
2022/03/18 08:59:43;;;;;;;80.50;45.75;;;7.50;99.90;;;;;;4976365;28;20070;-89
2022/03/18 09:02:45;;;;;;;78.40;45.08;;;7.60;99.90;;;;;;4975524;28;20064;-88
2022/03/18 09:06:18;;;;;;;76.72;43.45;;;7.80;99.90;;;;;;4958659;28;20042;-88
2022/03/18 09:09:15;;;;;;;71.20;43.17;;;8.00;99.90;;;;;;4964487;28;20061;-89
2022/03/18 09:12:22;;;;;;;78.30;44.95;;;8.00;99.90;;;;;;4980575;28;20042;-91
2022/03/18 09:15:48;;;;;;;;;;;;;;;;;;;;;
2022/03/18 09:18:33;;;;;;;73.75;43.95;;;8.10;99.90;;;;;;4982890;28;20054;-87
2022/03/18 09:21:23;;;;;;;75.05;43.88;;;8.10;99.90;;;;;;4964540;28;20047;-86
2022/03/18 09:24:12;;;;;;;72.28;43.58;;;8.10;99.90;;;;;;4975471;28;20102;-88
2022/03/18 09:27:09;;;;;;;74.05;42.60;;;8.30;99.90;;;;;;4962240;28;20135;-88
2022/03/18 09:30:04;;;;;;;74.07;42.83;;;8.30;99.90;;;;;;4960507;28;20059;-90
2022/03/18 09:33:10;;;;;;;70.82;41.45;;;8.40;99.90;;;;;;4975004;28;20062;-88
2022/03/18 09:36:19;;;;;;;65.25;41.28;;;8.50;99.90;;;;;;4966046;28;20047;-88
2022/03/18 09:39:36;;;;;;;65.18;40.42;;;8.70;99.90;;;;;;4963553;28;20234;-88
2022/03/18 09:42:54;;;;;;;63.03;38.47;;;9.30;99.90;;;;;;4978314;28;20058;-90
2022/03/18 09:45:47;;;;;;;61.80;37.55;;;9.30;99.90;;;;;;4975415;28;20066;-86
2022/03/18 09:49:11;;;;;;;56.40;36.25;;;9.90;99.90;;;;;;4979489;28;20118;-82
2022/03/18 09:52:10;;;;;;;54.65;35.15;;;9.60;99.90;;;;;;4959213;28;20058;-86
2022/03/18 09:55:01;;;;;;;61.80;35.47;;;9.90;99.90;;;;;;4970907;28;20047;-86
2022/03/18 09:58:13;;;;;;;52.40;34.00;;;10.20;99.90;;;;;;4980467;28;20129;-88
2022/03/18 10:01:19;;;;;;;;;;;;;;;;;;;;;
2022/03/18 10:04:29;;;;;;;51.65;31.55;;;10.70;99.90;;;;;;4970905;28;20102;-88
2022/03/18 10:07:31;;;;;;;55.20;33.03;;;11.40;99.90;;;;;;4963516;28;20061;-87
2022/03/18 10:10:29;;;;;;;51.90;33.13;;;11.30;99.90;;;;;;4948611;28;20047;-88
2022/03/18 10:13:34;;;;;;;49.58;31.40;;;10.90;99.90;;;;;;4959951;28;20070;-87
2022/03/18 10:17:04;;;;;;;50.08;30.25;;;11.80;99.90;;;;;;4975979;28;20074;-88
2022/03/18 10:20:42;;;;;;;47.63;28.08;;;12.60;99.90;;;;;;4969742;28;20129;-86
2022/03/18 10:24:03;;;;;;;47.33;29.73;;;11.50;1.00;;;;;;4963976;28;20437;-85
2022/03/18 10:27:19;;;;;;;44.13;27.98;;;12.40;1.00;;;;;;4976197;28;20336;-87
2022/03/18 10:30:23;;;;;;;46.60;29.17;;;13.70;1.00;;;;;;4951212;28;20477;-85
2022/03/18 10:37:04;;;;;;;46.90;29.30;;;13.20;1.00;;;;;;4972408;28;20057;-85
2022/03/18 10:37:05;;;;;;;48.15;28.70;;;13.70;99.90;;;;;;4975065;28;20137;-82
2022/03/18 10:40:00;;;;;;;45.05;28.48;;;13.40;1.00;;;;;;4972889;28;20058;-84
2022/03/18 10:43:04;;;;;;;46.47;28.20;;;13.90;99.90;;;;;;4966887;28;20091;-85
2022/03/18 10:46:06;;;;;;;42.55;27.73;;;13.30;1.00;;;;;;4968918;28;20138;-88
2022/03/18 10:49:23;;;;;;;42.22;27.60;;;14.70;99.90;;;;;;4972701;28;20372;-88
2022/03/18 10:52:14;;;;;;;41.78;26.48;;;16.20;99.90;;;;;;4970812;28;20178;-87
2022/03/18 10:55:22;;;;;;;42.78;27.73;;;15.10;99.90;;;;;;4970920;28;20345;-87
2022/03/18 10:58:32;;;;;;;40.35;27.50;;;16.10;1.00;;;;;;4972757;28;20050;-88
2022/03/18 11:01:19;;;;;;;38.10;25.25;;;17.80;99.90;;;;;;4976075;28;20440;-86
2022/03/18 11:04:09;;;;;;;42.08;26.48;;;18.40;99.90;;;;;;4963049;28;20142;-87
2022/03/18 11:07:51;;;;;;;;;;;;;;;;;;;;;
2022/03/18 11:14:06;;;;;;;40.75;26.95;;;19.00;99.90;;;;;;4972760;28;20487;-87
2022/03/18 11:16:54;;;;;;;40.60;25.80;;;17.70;99.90;;;;;;4976996;28;20122;-85
2022/03/18 11:19:44;;;;;;;36.60;26.05;;;17.80;99.90;;;;;;4974332;28;20089;-85
2022/03/18 11:22:35;;;;;;;44.25;29.20;;;17.50;91.40;;;;;;4973808;28;20445;-85
2022/03/18 11:25:24;;;;;;;40.33;27.23;;;16.80;35.00;;;;;;4973141;28;20077;-87
2022/03/18 11:28:19;;;;;;;38.47;26.33;;;16.20;99.90;;;;;;4969624;28;20067;-87
2022/03/18 11:31:16;;;;;;;42.60;28.17;;;16.80;1.00;;;;;;4962284;28;20075;-88
2022/03/18 11:34:28;;;;;;;43.38;27.60;;;17.40;99.90;;;;;;4973314;28;20074;-87
2022/03/18 11:37:18;;;;;;;45.28;29.30;;;15.50;99.90;;;;;;4970684;28;20483;-88
2022/03/18 11:40:27;;;;;;;47.08;28.60;;;15.40;1.00;;;;;;4972674;28;20073;-88
2022/03/18 11:43:34;;;;;;;43.10;27.17;;;15.60;99.90;;;;;;4976095;28;20145;-87
2022/03/18 11:46:25;;;;;;;39.40;27.30;;;16.50;22.00;;;;;;4976746;28;20105;-87
2022/03/18 11:49:13;;;;;;;41.78;26.52;;;16.30;1.00;;;;;;4960710;28;20066;-87
2022/03/18 11:52:00;;;;;;;38.47;26.67;;;16.50;1.00;;;;;;4970265;28;20039;-88
2022/03/18 11:54:58;;;;;;;40.17;27.95;;;17.00;1.00;;;;;;4980884;28;20046;-89
2022/03/18 11:57:50;;;;;;;41.95;28.83;;;15.90;99.90;;;;;;4975838;28;20089;-88
2022/03/18 12:00:43;;;;;;;41.75;27.50;;;16.00;99.90;;;;;;4975292;28;20100;-87
2022/03/18 12:03:37;;;;;;;46.05;29.48;;;15.30;1.00;;;;;;4973439;28;20050;-88
2022/03/18 12:06:28;;;;;;;44.33;29.52;;;16.00;99.90;;;;;;4964392;28;20054;-88
2022/03/18 12:09:47;;;;;;;43.97;29.80;;;16.40;1.00;;;;;;4967226;28;20061;-86
2022/03/18 12:12:47;;;;;;;44.50;28.80;;;16.40;99.90;;;;;;4983676;28;20046;-88
2022/03/18 12:15:39;;;;;;;42.33;28.65;;;17.80;11.30;;;;;;4979833;28;20102;-88
2022/03/18 12:18:28;;;;;;;40.20;28.58;;;17.90;1.00;;;;;;4977477;28;20197;-90
2022/03/18 12:21:42;;;;;;;42.40;28.67;;;18.00;99.90;;;;;;4974477;28;20426;-88
2022/03/18 12:24:32;;;;;;;43.33;28.50;;;16.90;99.90;;;;;;4977783;28;21279;-89
2022/03/18 12:27:36;;;;;;;42.13;27.40;;;16.10;1.00;;;;;;4979171;28;20142;-84
2022/03/18 12:30:30;;;;;;;41.58;29.30;;;15.60;1.00;;;;;;4984865;28;20476;-88
2022/03/18 12:33:29;;;;;;;47.15;30.05;;;15.50;76.40;;;;;;4985199;28;20057;-88
2022/03/18 12:36:27;;;;;;;47.88;29.83;;;15.50;99.90;;;;;;4990706;28;20066;-87
2022/03/18 12:39:15;;;;;;;44.17;29.65;;;15.10;1.00;;;;;;4984741;28;20166;-88
2022/03/18 12:42:11;;;;;;;46.85;30.38;;;14.60;99.90;;;;;;4977990;28;20046;-88
2022/03/18 12:45:02;;;;;;;54.15;31.67;;;14.30;99.90;;;;;;4969875;28;20047;-88
2022/03/18 12:47:54;;;;;;;45.58;29.90;;;14.00;99.90;;;;;;4977124;28;20066;-86
2022/03/18 12:50:48;;;;;;;46.90;31.00;;;13.60;99.90;;;;;;4971664;28;20047;-88
2022/03/18 12:53:36;;;;;;;42.45;29.50;;;13.20;99.90;;;;;;4959348;28;20134;-89
2022/03/18 12:56:30;;;;;;;48.38;31.23;;;13.20;99.90;;;;;;4970503;28;20157;-88
2022/03/18 12:59:18;;;;;;;47.17;31.63;;;13.10;99.90;;;;;;4955811;28;20038;-86
2022/03/18 13:02:06;;;;;;;45.13;30.92;;;13.30;99.90;;;;;;4974592;28;20062;-88
2022/03/18 13:05:05;;;;;;;48.13;31.80;;;13.40;99.90;;;;;;4973866;28;20349;-89
2022/03/18 13:07:58;;;;;;;45.15;31.25;;;13.40;99.90;;;;;;4966519;28;20108;-88
2022/03/18 13:10:57;;;;;;;48.47;32.08;;;13.50;99.90;;;;;;4969221;28;20451;-87
2022/03/18 13:13:51;;;;;;;45.38;31.27;;;13.90;99.90;;;;;;4982089;28;20146;-87
2022/03/18 13:16:42;;;;;;;49.83;29.95;;;14.60;99.90;;;;;;4967877;28;20047;-90
2022/03/18 13:19:50;;;;;;;44.45;30.35;;;15.70;99.90;;;;;;4979814;28;20042;-89
2022/03/18 13:22:40;;;;;;;48.67;30.77;;;16.20;99.90;;;;;;4979098;28;20057;-88
2022/03/18 13:25:52;;;;;;;;;;;;;;;;;;;;;
2022/03/18 13:28:54;;;;;;;44.88;29.23;;;15.80;99.90;;;;;;4977008;28;20050;-85
2022/03/18 13:34:56;;;;;;;45.95;31.30;;;15.40;1.00;;;;;;4976181;28;20047;-87
2022/03/18 13:38:16;;;;;;;42.05;29.20;;;15.40;1.00;;;;;;4977791;28;20045;-85
2022/03/18 13:41:12;;;;;;;43.03;29.77;;;15.30;1.00;;;;;;4976069;28;20047;-90
2022/03/18 13:44:02;;;;;;;42.88;29.73;;;15.30;99.90;;;;;;4953196;28;20042;-88
2022/03/18 13:47:07;;;;;;;42.30;29.33;;;14.70;59.30;;;;;;4978402;28;20098;-89
2022/03/18 13:50:02;;;;;;;42.70;29.02;;;14.50;1.00;;;;;;4973618;28;20487;-85
2022/03/18 13:52:56;;;;;;;48.00;30.65;;;14.20;1.00;;;;;;4977722;28;20121;-88
2022/03/18 13:55:51;;;;;;;40.65;27.52;;;14.40;99.90;;;;;;4962000;28;20047;-88
2022/03/18 13:58:40;;;;;;;41.78;29.02;;;14.60;99.90;;;;;;4975321;28;20535;-87
2022/03/18 14:01:27;;;;;;;43.05;29.48;;;14.50;99.90;;;;;;4976591;28;20394;-88
2022/03/18 14:04:15;;;;;;;43.13;28.40;;;14.40;99.90;;;;;;4976976;28;20046;-88
2022/03/18 14:07:03;;;;;;;42.55;28.60;;;14.40;99.90;;;;;;4970223;28;20043;-89
2022/03/18 14:10:05;;;;;;;40.28;27.67;;;14.70;99.90;;;;;;4976688;28;20046;-90
2022/03/18 14:12:57;;;;;;;38.22;26.80;;;14.90;1.00;;;;;;4976702;28;20141;-89
2022/03/18 14:15:50;;;;;;;40.28;27.75;;;15.00;99.90;;;;;;4974198;28;20081;-88
2022/03/18 14:18:42;;;;;;;39.70;28.17;;;14.80;99.90;;;;;;4971121;28;20328;-90
2022/03/18 14:21:41;;;;;;;37.25;26.42;;;14.50;99.90;;;;;;4974353;28;20055;-86
2022/03/18 14:24:28;;;;;;;41.55;28.15;;;14.40;86.10;;;;;;4973559;28;20047;-87
2022/03/18 14:27:20;;;;;;;38.85;27.05;;;14.10;1.00;;;;;;4974155;28;20047;-87
2022/03/18 14:30:24;;;;;;;42.90;28.38;;;13.80;1.00;;;;;;4958904;28;20046;-87
2022/03/18 14:33:18;;;;;;;40.10;28.55;;;13.30;99.90;;;;;;4973416;28;20062;-86
2022/03/18 14:36:09;;;;;;;37.20;27.38;;;13.20;99.90;;;;;;4965181;28;20134;-85
2022/03/18 14:39:02;;;;;;;41.47;26.73;;;13.50;99.90;;;;;;4988885;28;20038;-87
2022/03/18 14:42:10;;;;;;;39.55;25.63;;;13.80;99.90;;;;;;4969493;28;20061;-88
2022/03/18 14:45:01;;;;;;;40.10;25.17;;;13.80;99.90;;;;;;4974709;28;20054;-87
2022/03/18 14:48:24;;;;;;;36.60;24.55;;;13.70;99.90;;;;;;4965235;28;20050;-89
2022/03/18 14:51:18;;;;;;;36.58;24.38;;;13.40;99.90;;;;;;4978103;28;20062;-88
2022/03/18 14:57:38;;;;;;;33.65;23.65;;;12.90;99.90;;;;;;4978903;28;20046;-86
2022/03/18 15:00:26;;;;;;;36.10;24.40;;;12.80;99.90;;;;;;4975821;28;20039;-85
2022/03/18 15:03:16;;;;;;;37.47;24.67;;;12.80;99.90;;;;;;4975583;28;20087;-86
2022/03/18 15:06:03;;;;;;;36.60;24.23;;;12.70;99.90;;;;;;4962329;28;20058;-87
2022/03/18 15:08:53;;;;;;;37.13;23.70;;;12.70;99.90;;;;;;4970783;28;20061;-86
2022/03/18 15:11:41;;;;;;;37.40;24.83;;;12.60;99.90;;;;;;4971836;28;20046;-84
2022/03/18 15:14:29;;;;;;;32.28;22.02;;;12.70;99.90;;;;;;4965053;28;20101;-85
2022/03/18 15:17:19;;;;;;;34.28;22.83;;;12.90;99.90;;;;;;4971564;28;20126;-86
2022/03/18 15:20:08;;;;;;;32.88;22.77;;;12.90;99.90;;;;;;4959121;28;20065;-80
2022/03/18 15:23:00;;;;;;;38.42;24.75;;;12.70;99.90;;;;;;4971514;28;20051;-83